Time;durP1;ratioP1;P1;durP2;ratioP2;P2;SDS_P1;SDS_P2;PMS_P1;PMS_P2;Temp;Humidity;BMP_temperature;BMP_pressure;BME280_temperature;BME280_humidity;BME280_pressure;Samples;Min_cycle;Max_cycle;Signal;HPM_P1;HPM_P2
2021/07/11 00:05:42;;;;;;;12.98;10.10;;;17.40;99.90;;;;;;12449414;28;20053;-42
2021/07/11 00:11:44;;;;;;;11.88;10.10;;;17.30;99.90;;;;;;12451263;28;20065;-40
2021/07/11 00:17:46;;;;;;;12.38;9.55;;;17.10;99.90;;;;;;12449117;28;20093;-40
2021/07/11 00:23:48;;;;;;;10.35;9.23;;;17.10;99.90;;;;;;12448365;28;20053;-41
2021/07/11 00:29:50;;;;;;;10.35;9.23;;;17.00;99.90;;;;;;12448552;28;20054;-41
2021/07/11 00:35:52;;;;;;;11.57;9.30;;;16.90;99.90;;;;;;12449295;28;20465;-40
2021/07/11 00:41:54;;;;;;;12.13;9.45;;;16.80;99.90;;;;;;12453257;28;20095;-40
2021/07/11 00:47:56;;;;;;;12.25;9.70;;;16.80;99.90;;;;;;12451376;28;20046;-41
2021/07/11 00:53:57;;;;;;;10.60;9.50;;;16.60;99.90;;;;;;12448191;28;20103;-40
2021/07/11 00:59:59;;;;;;;12.25;10.43;;;16.60;99.90;;;;;;12445532;28;20064;-41
2021/07/11 01:06:03;;;;;;;14.02;11.35;;;16.60;99.90;;;;;;12445472;28;20054;-41
2021/07/11 01:12:25;;;;;;;14.67;11.50;;;16.70;99.90;;;;;;12443208;28;20073;-40
2021/07/11 01:18:28;;;;;;;13.23;10.70;;;16.90;99.90;;;;;;12446606;28;20608;-41
2021/07/11 01:24:33;;;;;;;14.95;10.95;;;17.10;99.90;;;;;;12450650;28;20049;-40
2021/07/11 01:30:36;;;;;;;11.60;9.77;;;17.10;99.90;;;;;;12446130;28;20557;-41
2021/07/11 01:36:40;;;;;;;16.85;11.32;;;17.10;99.90;;;;;;12446530;28;20092;-40
2021/07/11 01:42:42;;;;;;;12.35;10.82;;;16.90;99.90;;;;;;12446312;28;20107;-41
2021/07/11 01:48:44;;;;;;;19.02;10.35;;;16.80;99.90;;;;;;12447449;28;20057;-42
2021/07/11 01:54:47;;;;;;;18.10;10.52;;;16.90;99.90;;;;;;12447915;28;20083;-40
2021/07/11 02:00:51;;;;;;;14.13;11.13;;;17.00;99.90;;;;;;12444230;28;20041;-41
2021/07/11 02:06:53;;;;;;;;;;;16.90;99.90;;;;;;12448987;28;20053;-43
2021/07/11 02:13:04;;;;;;;15.80;11.07;;;16.90;99.90;;;;;;12439418;28;19925;-41
2021/07/11 02:19:07;;;;;;;17.02;10.80;;;16.80;99.90;;;;;;12446915;28;20541;-40
2021/07/11 02:25:13;;;;;;;15.13;10.95;;;16.80;99.90;;;;;;12444518;28;20080;-42
2021/07/11 02:31:16;;;;;;;13.70;11.43;;;16.80;99.90;;;;;;12440510;28;20053;-41
2021/07/11 02:37:21;;;;;;;19.52;11.60;;;16.90;99.90;;;;;;12445980;28;20056;-42
2021/07/11 02:43:24;;;;;;;21.92;10.77;;;16.80;99.90;;;;;;12442476;28;20099;-41
2021/07/11 02:49:28;;;;;;;16.42;10.43;;;16.80;99.90;;;;;;12443351;28;20471;-40
2021/07/11 02:55:35;;;;;;;19.48;11.40;;;16.90;99.90;;;;;;12441894;28;20092;-41
2021/07/11 03:01:38;;;;;;;31.92;11.25;;;16.80;99.90;;;;;;12442551;28;20050;-40
2021/07/11 03:07:40;;;;;;;30.70;11.57;;;16.70;99.90;;;;;;12442922;28;20049;-41
2021/07/11 03:13:42;;;;;;;25.45;11.25;;;16.40;99.90;;;;;;12439078;28;20084;-41
2021/07/11 03:19:46;;;;;;;21.40;12.20;;;16.20;99.90;;;;;;12440817;28;20069;-40
2021/07/11 03:25:50;;;;;;;21.03;12.37;;;16.30;99.90;;;;;;12444904;28;20437;-41
2021/07/11 03:31:56;;;;;;;18.92;12.27;;;16.50;99.90;;;;;;12443211;28;20049;-40
2021/07/11 03:37:59;;;;;;;19.13;12.23;;;16.60;99.90;;;;;;12447524;28;20537;-41
2021/07/11 03:44:03;;;;;;;16.90;11.70;;;16.80;99.90;;;;;;12440207;28;20057;-42
2021/07/11 03:50:06;;;;;;;19.83;11.90;;;16.90;99.90;;;;;;12439514;28;20455;-41
2021/07/11 03:56:09;;;;;;;17.73;12.07;;;17.10;99.90;;;;;;12447664;28;20057;-40
2021/07/11 04:02:13;;;;;;;16.90;12.50;;;17.10;99.90;;;;;;12455388;28;20094;-41
2021/07/11 04:08:17;;;;;;;13.35;11.15;;;17.10;99.90;;;;;;12445552;28;20062;-41
2021/07/11 04:14:21;;;;;;;15.30;10.52;;;17.20;99.90;;;;;;12453928;28;20050;-42
2021/07/11 04:20:26;;;;;;;17.00;12.17;;;17.20;99.90;;;;;;12450960;28;20046;-40
2021/07/11 04:26:37;;;;;;;13.30;11.00;;;17.30;99.90;;;;;;12449435;28;20108;-40
2021/07/11 04:32:39;;;;;;;15.57;11.75;;;17.30;99.90;;;;;;12447273;28;20045;-41
2021/07/11 04:38:41;;;;;;;13.75;11.40;;;17.50;99.90;;;;;;12450278;28;20046;-42
2021/07/11 04:44:45;;;;;;;14.45;11.95;;;17.50;99.90;;;;;;12443558;28;20096;-41
2021/07/11 04:50:47;;;;;;;14.30;12.00;;;17.50;99.90;;;;;;12447989;28;20480;-41
2021/07/11 04:56:49;;;;;;;16.98;12.15;;;17.50;99.90;;;;;;12446313;28;20636;-41
2021/07/11 05:02:51;;;;;;;14.50;12.18;;;17.60;99.90;;;;;;12447273;28;20049;-41
2021/07/11 05:08:53;;;;;;;15.40;12.23;;;17.60;99.90;;;;;;12445088;28;20107;-40
2021/07/11 05:14:55;;;;;;;14.63;11.77;;;17.70;99.90;;;;;;12444320;28;20438;-40
2021/07/11 05:20:57;;;;;;;16.25;12.27;;;17.80;99.90;;;;;;12451138;28;20395;-42
2021/07/11 05:26:59;;;;;;;16.08;12.40;;;17.80;99.90;;;;;;12440488;28;20148;-40
2021/07/11 05:33:01;;;;;;;17.45;12.82;;;17.90;99.90;;;;;;12446053;28;20666;-40
2021/07/11 05:39:03;;;;;;;17.88;11.95;;;17.90;99.90;;;;;;12443946;28;20045;-41
2021/07/11 05:45:06;;;;;;;14.18;11.27;;;18.00;99.90;;;;;;12444415;28;20127;-41
2021/07/11 05:51:07;;;;;;;14.23;12.10;;;18.10;99.90;;;;;;12446773;28;20057;-42
2021/07/11 05:57:09;;;;;;;14.77;11.93;;;18.10;99.90;;;;;;12446580;28;20081;-40
2021/07/11 06:03:11;;;;;;;14.23;11.52;;;18.10;99.90;;;;;;12441116;28;20556;-40
2021/07/11 06:09:13;;;;;;;20.90;12.20;;;18.20;99.90;;;;;;12446889;28;20053;-41
2021/07/11 06:15:15;;;;;;;15.30;12.40;;;18.20;99.90;;;;;;12446966;28;20045;-41
2021/07/11 06:21:17;;;;;;;13.95;10.93;;;18.20;99.90;;;;;;12445057;28;20131;-41
2021/07/11 06:27:18;;;;;;;12.82;11.10;;;18.30;99.90;;;;;;12445630;28;20057;-40
2021/07/11 06:33:21;;;;;;;12.27;10.45;;;18.30;99.90;;;;;;12449646;28;20045;-41
2021/07/11 06:39:22;;;;;;;12.98;11.68;;;18.30;99.90;;;;;;12449874;28;20445;-40
2021/07/11 06:45:24;;;;;;;18.00;12.20;;;18.50;99.90;;;;;;12444625;28;20114;-41
2021/07/11 06:51:26;;;;;;;16.33;11.27;;;18.50;99.90;;;;;;12439144;28;20144;-42
2021/07/11 06:57:28;;;;;;;12.70;10.98;;;18.60;99.90;;;;;;12447572;28;20046;-40
2021/07/11 07:03:30;;;;;;;12.15;10.88;;;18.70;99.90;;;;;;12442738;28;20054;-41
2021/07/11 07:09:32;;;;;;;11.90;10.15;;;18.80;99.90;;;;;;12442559;28;20147;-43
2021/07/11 07:15:33;;;;;;;13.15;10.70;;;18.90;99.90;;;;;;12441869;28;20053;-41
2021/07/11 07:21:35;;;;;;;12.65;10.48;;;19.10;99.90;;;;;;12441632;28;20048;-41
2021/07/11 07:27:37;;;;;;;15.20;9.95;;;19.20;99.90;;;;;;12439183;28;20151;-41
2021/07/11 07:33:39;;;;;;;15.65;10.23;;;19.50;99.90;;;;;;12449492;28;20089;-40
2021/07/11 07:39:41;;;;;;;9.88;8.57;;;19.70;99.90;;;;;;12452230;28;20076;-41
2021/07/11 07:45:44;;;;;;;10.00;7.90;;;20.00;99.90;;;;;;12447637;28;20054;-41
2021/07/11 07:51:46;;;;;;;12.80;8.10;;;20.10;99.90;;;;;;12449828;28;20092;-41
2021/07/11 07:57:48;;;;;;;12.00;9.80;;;20.10;99.90;;;;;;12446552;28;20771;-40
2021/07/11 08:03:51;;;;;;;10.70;9.50;;;20.20;99.90;;;;;;12446224;28;20053;-42
2021/07/11 08:09:54;;;;;;;13.63;10.18;;;20.30;99.90;;;;;;12456560;28;20061;-41
2021/07/11 08:15:55;;;;;;;12.90;10.30;;;20.50;99.90;;;;;;12451051;28;20137;-42
2021/07/11 08:21:57;;;;;;;11.32;9.57;;;20.70;99.90;;;;;;12451071;28;20417;-42
2021/07/11 08:28:00;;;;;;;10.35;8.80;;;20.80;99.90;;;;;;12449210;28;20119;-43
2021/07/11 08:34:04;;;;;;;19.70;10.95;;;20.80;99.90;;;;;;12447511;28;20160;-44
2021/07/11 08:40:09;;;;;;;11.48;10.25;;;20.90;99.90;;;;;;12443276;28;20053;-41
2021/07/11 08:46:10;;;;;;;10.82;8.82;;;21.10;99.90;;;;;;12443090;28;20053;-41
2021/07/11 08:52:13;;;;;;;10.75;7.72;;;21.20;99.90;;;;;;12437647;28;20054;-41
2021/07/11 08:58:15;;;;;;;9.38;8.45;;;21.30;99.90;;;;;;12442430;28;20053;-41
2021/07/11 09:04:17;;;;;;;10.27;7.78;;;21.40;99.90;;;;;;12447984;28;20107;-43
2021/07/11 09:10:31;;;;;;;9.18;7.00;;;21.40;99.90;;;;;;12449567;28;20103;-43
2021/07/11 09:16:43;;;;;;;11.35;8.85;;;21.60;99.90;;;;;;12441310;28;20365;-44
2021/07/11 09:22:56;;;;;;;9.70;7.97;;;21.70;99.90;;;;;;12442967;28;20083;-42
2021/07/11 09:28:58;;;;;;;9.53;7.97;;;21.90;99.90;;;;;;12445391;28;20099;-45
2021/07/11 09:35:11;;;;;;;8.55;7.05;;;22.10;99.90;;;;;;12430636;28;20042;-44
2021/07/11 09:41:27;;;;;;;8.82;6.63;;;22.40;99.90;;;;;;12436066;28;20054;-41
2021/07/11 09:47:31;;;;;;;9.68;7.60;;;22.60;99.90;;;;;;12429648;28;20053;-43
2021/07/11 09:53:32;;;;;;;8.82;7.30;;;22.80;99.90;;;;;;12436859;28;20049;-41
2021/07/11 09:59:34;;;;;;;9.15;6.63;;;22.90;99.90;;;;;;12443913;28;20056;-44
2021/07/11 10:05:36;;;;;;;7.88;6.30;;;23.10;99.90;;;;;;12434520;28;21035;-42
2021/07/11 10:11:38;;;;;;;6.63;5.65;;;22.90;99.90;;;;;;12440956;28;20049;-42
2021/07/11 10:17:54;;;;;;;7.03;6.32;;;23.00;99.90;;;;;;12442300;28;20099;-41
2021/07/11 10:23:58;;;;;;;8.77;6.40;;;23.20;99.90;;;;;;12448738;28;20073;-41
2021/07/11 10:30:00;;;;;;;7.03;5.15;;;23.00;99.90;;;;;;12442271;28;20891;-42
2021/07/11 10:36:05;;;;;;;6.68;5.50;;;22.60;99.90;;;;;;12439694;28;20099;-42
2021/07/11 10:42:11;;;;;;;9.73;6.20;;;22.50;99.90;;;;;;12439287;28;20045;-41
2021/07/11 10:48:13;;;;;;;8.02;5.85;;;22.70;99.90;;;;;;12443055;28;20462;-44
2021/07/11 10:54:28;;;;;;;8.47;5.83;;;23.30;99.90;;;;;;12443555;28;20042;-41
2021/07/11 11:00:30;;;;;;;6.82;5.20;;;23.40;99.90;;;;;;12444306;28;20046;-41
2021/07/11 11:06:39;;;;;;;7.17;5.10;;;23.30;99.90;;;;;;12439317;28;20053;-46
2021/07/11 11:12:41;;;;;;;5.72;5.15;;;23.50;99.90;;;;;;12447303;28;20126;-41
2021/07/11 11:18:48;;;;;;;6.22;5.63;;;23.50;99.90;;;;;;12443141;28;20100;-44
2021/07/11 11:24:50;;;;;;;9.65;6.38;;;23.20;99.90;;;;;;12439902;28;20107;-41
2021/07/11 11:30:52;;;;;;;7.07;5.53;;;23.10;99.90;;;;;;12439431;28;20046;-40
2021/07/11 11:36:57;;;;;;;7.68;5.80;;;23.10;99.90;;;;;;12439246;28;20068;-41
2021/07/11 11:43:04;;;;;;;6.35;5.18;;;22.90;99.90;;;;;;12438022;28;20083;-41
2021/07/11 11:49:09;;;;;;;6.88;6.05;;;22.80;99.90;;;;;;12443165;28;20458;-41
2021/07/11 11:55:14;;;;;;;6.57;5.82;;;22.70;99.90;;;;;;12438932;28;20050;-40
2021/07/11 12:01:17;;;;;;;8.77;5.65;;;22.60;99.90;;;;;;12435296;28;20108;-42
2021/07/11 12:07:19;;;;;;;8.03;5.90;;;22.70;99.90;;;;;;12427723;28;20053;-41
2021/07/11 12:13:23;;;;;;;6.80;6.10;;;22.70;99.90;;;;;;12440841;28;20971;-41
2021/07/11 12:19:26;;;;;;;7.43;5.55;;;23.00;99.90;;;;;;12445827;28;20165;-40
2021/07/11 12:25:31;;;;;;;8.23;5.80;;;23.00;99.90;;;;;;12450602;28;20053;-45
2021/07/11 12:31:38;;;;;;;6.68;5.45;;;23.30;99.90;;;;;;12443465;28;20057;-41
2021/07/11 12:37:53;;;;;;;13.55;12.15;;;23.70;99.90;;;;;;12449463;28;20517;-41
2021/07/11 12:43:57;;;;;;;15.98;14.23;;;23.50;99.90;;;;;;12446367;28;20045;-41
2021/07/11 12:50:00;;;;;;;21.40;13.73;;;23.10;99.90;;;;;;12450151;28;20053;-40
2021/07/11 12:56:02;;;;;;;16.42;13.70;;;22.50;99.90;;;;;;12448470;28;20053;-43
2021/07/11 13:02:17;;;;;;;15.43;13.13;;;22.30;99.90;;;;;;12445638;28;20045;-41
2021/07/11 13:08:22;;;;;;;17.20;13.65;;;22.20;99.90;;;;;;12448495;28;20111;-41
2021/07/11 13:14:24;;;;;;;13.93;12.43;;;22.20;99.90;;;;;;12445848;28;20037;-44
2021/07/11 13:20:26;;;;;;;18.00;13.88;;;23.10;99.90;;;;;;12444755;28;20442;-41
2021/07/11 13:26:28;;;;;;;21.15;17.75;;;23.10;99.90;;;;;;12444358;28;20551;-40
2021/07/11 13:32:30;;;;;;;23.73;19.88;;;22.50;99.90;;;;;;12448275;28;20054;-40
2021/07/11 13:38:32;;;;;;;22.02;19.15;;;21.90;99.90;;;;;;12443153;28;20046;-40
2021/07/11 13:44:36;;;;;;;23.10;17.73;;;21.70;99.90;;;;;;12438782;28;20683;-43
2021/07/11 13:50:38;;;;;;;;;;;21.40;99.90;;;;;;12440791;28;20526;-40
2021/07/11 13:56:40;;;;;;;32.22;25.67;;;21.20;99.90;;;;;;12445874;28;19929;-40
2021/07/11 14:02:42;;;;;;;35.50;28.42;;;20.70;99.90;;;;;;12451726;28;20042;-41
2021/07/11 14:08:44;;;;;;;31.92;28.42;;;20.20;99.90;;;;;;12446395;28;20123;-41
2021/07/11 14:14:46;;;;;;;33.33;26.52;;;19.70;99.90;;;;;;12441381;28;20053;-40
2021/07/11 14:20:49;;;;;;;23.00;19.58;;;19.80;99.90;;;;;;12444482;28;20390;-42
2021/07/11 14:26:52;;;;;;;24.92;22.23;;;19.90;99.90;;;;;;12438663;28;20103;-41
2021/07/11 14:32:54;;;;;;;32.22;27.45;;;19.90;99.90;;;;;;12443920;28;20071;-40
2021/07/11 14:38:55;;;;;;;39.72;31.63;;;20.00;99.90;;;;;;12442745;28;20041;-44
2021/07/11 14:44:57;;;;;;;34.40;28.65;;;20.00;99.90;;;;;;12443207;28;20518;-40
2021/07/11 14:50:59;;;;;;;32.13;27.52;;;20.00;99.90;;;;;;12444165;28;20095;-40
2021/07/11 14:57:02;;;;;;;29.13;25.00;;;20.00;99.90;;;;;;12443739;28;20057;-40
2021/07/11 15:03:04;;;;;;;30.85;24.88;;;20.10;99.90;;;;;;12445349;28;20096;-40
2021/07/11 15:09:06;;;;;;;31.58;28.23;;;20.20;99.90;;;;;;12449149;28;20486;-42
2021/07/11 15:15:08;;;;;;;31.20;24.17;;;20.30;99.90;;;;;;12438907;28;20490;-40
2021/07/11 15:21:10;;;;;;;28.17;25.15;;;20.30;99.90;;;;;;12438688;28;20096;-40
2021/07/11 15:27:12;;;;;;;25.42;22.80;;;20.40;99.90;;;;;;12444083;28;20103;-40
2021/07/11 15:33:16;;;;;;;23.25;19.75;;;20.50;99.90;;;;;;12440037;28;20131;-41
2021/07/11 15:39:18;;;;;;;;;;;20.40;99.90;;;;;;12444929;28;20131;-40
2021/07/11 15:45:20;;;;;;;17.55;15.82;;;20.70;99.90;;;;;;12442159;28;20448;-43
2021/07/11 15:51:22;;;;;;;18.75;16.63;;;21.10;99.90;;;;;;12447484;28;20092;-42
2021/07/11 15:57:24;;;;;;;15.77;14.17;;;21.80;99.90;;;;;;12453520;28;20049;-41
2021/07/11 16:03:27;;;;;;;11.38;10.25;;;22.40;99.90;;;;;;12455739;28;20433;-42
2021/07/11 16:09:29;;;;;;;12.70;10.63;;;22.60;99.90;;;;;;12451702;28;20092;-41
2021/07/11 16:15:32;;;;;;;9.60;8.65;;;22.80;99.90;;;;;;12451256;28;20362;-40
2021/07/11 16:21:35;;;;;;;10.43;8.98;;;22.70;99.90;;;;;;12451555;28;20069;-42
2021/07/11 16:27:37;;;;;;;9.73;8.73;;;22.40;99.90;;;;;;12448532;28;20046;-43
2021/07/11 16:33:39;;;;;;;10.57;8.73;;;22.10;99.90;;;;;;12453780;28;20050;-41
2021/07/11 16:39:47;;;;;;;12.75;9.10;;;21.80;99.90;;;;;;12451303;28;20095;-42
2021/07/11 16:45:49;;;;;;;10.32;9.27;;;21.70;99.90;;;;;;12449331;28;20131;-41
2021/07/11 16:51:51;;;;;;;10.57;8.80;;;21.50;99.90;;;;;;12452467;28;20050;-43
2021/07/11 16:57:56;;;;;;;9.30;8.40;;;21.40;99.90;;;;;;12445490;28;20469;-42
2021/07/11 17:03:58;;;;;;;12.07;8.70;;;21.60;99.90;;;;;;12442344;28;20046;-42
2021/07/11 17:10:01;;;;;;;9.52;8.57;;;21.50;99.90;;;;;;12445358;28;20053;-41
2021/07/11 17:16:03;;;;;;;10.80;9.00;;;21.70;99.90;;;;;;12446593;28;20068;-43
2021/07/11 17:22:05;;;;;;;11.07;9.85;;;21.50;99.90;;;;;;12443503;28;20072;-42
2021/07/11 17:28:07;;;;;;;12.32;11.07;;;21.30;99.90;;;;;;12445836;28;20072;-41
2021/07/11 17:34:09;;;;;;;15.82;12.60;;;20.80;99.90;;;;;;12442919;28;20057;-43
2021/07/11 17:40:11;;;;;;;15.52;13.93;;;20.40;99.90;;;;;;12437487;28;20065;-42
2021/07/11 17:46:14;;;;;;;16.98;14.38;;;20.10;99.90;;;;;;12444379;28;20041;-41
2021/07/11 17:52:16;;;;;;;17.05;15.35;;;19.90;99.90;;;;;;12443132;28;20102;-40
2021/07/11 17:58:18;;;;;;;17.25;15.52;;;19.70;99.90;;;;;;12445493;28;20077;-42
2021/07/11 18:04:20;;;;;;;19.77;17.13;;;19.60;99.90;;;;;;12445419;28;20260;-40
2021/07/11 18:10:22;;;;;;;18.88;16.85;;;19.60;99.90;;;;;;12443117;28;20100;-40
2021/07/11 18:16:24;;;;;;;17.05;15.35;;;19.70;99.90;;;;;;12442883;28;20046;-43
2021/07/11 18:22:27;;;;;;;21.73;18.75;;;19.60;99.90;;;;;;12446609;28;20049;-41
2021/07/11 18:28:29;;;;;;;23.58;19.02;;;19.60;99.90;;;;;;12446681;28;20092;-41
2021/07/11 18:34:32;;;;;;;22.95;19.40;;;19.50;99.90;;;;;;12443776;28;20088;-45
2021/07/11 18:40:34;;;;;;;22.83;18.73;;;19.50;99.90;;;;;;12443792;28;20053;-40
2021/07/11 18:46:36;;;;;;;21.85;18.48;;;19.50;99.90;;;;;;12444814;28;20049;-42
2021/07/11 18:52:43;;;;;;;22.50;17.73;;;19.50;99.90;;;;;;12442354;28;20060;-40
2021/07/11 18:58:45;;;;;;;29.65;18.33;;;19.50;99.90;;;;;;12443902;28;20053;-40
2021/07/11 19:04:46;;;;;;;23.63;16.88;;;19.40;99.90;;;;;;12445399;28;20050;-41
2021/07/11 19:10:48;;;;;;;23.17;15.88;;;19.20;99.90;;;;;;12441360;28;20041;-41
2021/07/11 19:16:50;;;;;;;23.33;17.90;;;19.10;99.90;;;;;;12442659;28;20080;-43
2021/07/11 19:22:53;;;;;;;23.70;19.85;;;19.00;99.90;;;;;;12437941;28;20050;-41
2021/07/11 19:28:55;;;;;;;25.15;19.85;;;18.90;99.90;;;;;;12448357;28;20103;-40
2021/07/11 19:34:57;;;;;;;23.63;20.17;;;18.80;99.90;;;;;;12453737;28;20058;-41
2021/07/11 19:40:59;;;;;;;21.30;17.13;;;18.80;99.90;;;;;;12444140;28;20427;-44
2021/07/11 19:47:01;;;;;;;20.00;16.50;;;18.90;99.90;;;;;;12450206;28;20115;-41
2021/07/11 19:53:05;;;;;;;28.10;16.30;;;18.70;99.90;;;;;;12444474;28;20387;-40
2021/07/11 19:59:08;;;;;;;22.75;18.00;;;18.60;99.90;;;;;;12449392;28;20100;-41
2021/07/11 20:05:10;;;;;;;24.35;17.25;;;18.50;99.90;;;;;;12451232;28;20112;-40
2021/07/11 20:11:12;;;;;;;18.92;13.98;;;18.30;99.90;;;;;;12449194;28;20178;-44
2021/07/11 20:17:15;;;;;;;22.05;12.57;;;18.10;99.90;;;;;;12449617;28;20124;-42
2021/07/11 20:23:16;;;;;;;16.80;12.18;;;17.90;99.90;;;;;;12450737;28;20049;-40
2021/07/11 20:29:18;;;;;;;22.65;12.75;;;17.90;99.90;;;;;;12452150;28;20084;-42
2021/07/11 20:35:20;;;;;;;22.58;12.90;;;17.80;99.90;;;;;;12454562;28;20911;-41
2021/07/11 20:41:23;;;;;;;26.95;16.00;;;17.60;99.90;;;;;;12444463;28;20046;-40
2021/07/11 20:47:25;;;;;;;36.10;26.02;;;17.50;99.90;;;;;;12449927;28;20104;-43
2021/07/11 20:53:27;;;;;;;41.42;30.33;;;17.60;99.90;;;;;;12447460;28;20080;-41
2021/07/11 20:59:34;;;;;;;43.70;28.58;;;17.90;99.90;;;;;;12450558;28;20107;-41
2021/07/11 21:05:36;;;;;;;37.45;26.90;;;17.80;99.90;;;;;;12449250;28;20045;-42
2021/07/11 21:11:38;;;;;;;42.10;30.70;;;17.90;99.90;;;;;;12443556;28;20061;-42
2021/07/11 21:17:40;;;;;;;43.42;32.13;;;18.00;99.90;;;;;;12448041;28;20050;-43
2021/07/11 21:23:42;;;;;;;44.88;28.52;;;18.00;99.90;;;;;;12448299;28;20333;-42
2021/07/11 21:29:44;;;;;;;44.50;33.35;;;18.00;99.90;;;;;;12445619;28;20239;-43
2021/07/11 21:35:45;;;;;;;52.38;34.65;;;18.10;99.90;;;;;;12445109;28;20046;-43
2021/07/11 21:41:48;;;;;;;58.88;33.00;;;18.10;99.90;;;;;;12448126;28;20073;-40
2021/07/11 21:47:51;;;;;;;49.58;31.63;;;18.10;99.90;;;;;;12445622;28;21180;-40
2021/07/11 21:53:54;;;;;;;60.40;31.20;;;18.10;99.90;;;;;;12442858;28;20704;-40
2021/07/11 21:59:55;;;;;;;38.97;27.83;;;17.90;99.90;;;;;;12445057;28;20050;-41
2021/07/11 22:05:57;;;;;;;36.30;24.27;;;18.00;99.90;;;;;;12445542;28;20053;-40
2021/07/11 22:11:59;;;;;;;32.40;23.77;;;17.90;99.90;;;;;;12442943;28;20619;-41
2021/07/11 22:18:03;;;;;;;22.75;18.77;;;18.00;99.90;;;;;;12445791;28;20115;-42
2021/07/11 22:24:06;;;;;;;22.13;15.02;;;18.00;99.90;;;;;;12445867;28;20045;-41
2021/07/11 22:30:10;;;;;;;26.98;14.75;;;18.00;99.90;;;;;;12446988;28;20134;-43
2021/07/11 22:36:11;;;;;;;33.80;17.67;;;17.90;99.90;;;;;;12442709;28;20115;-40
2021/07/11 22:42:15;;;;;;;26.73;13.13;;;17.90;99.90;;;;;;12440160;28;20045;-41
2021/07/11 22:48:18;;;;;;;27.08;11.73;;;17.70;99.90;;;;;;12437873;28;20479;-42
2021/07/11 22:54:20;;;;;;;36.13;12.80;;;17.40;99.90;;;;;;12443177;28;20057;-41
2021/07/11 23:00:28;;;;;;;30.10;11.32;;;17.40;99.90;;;;;;12442872;28;20052;-40
2021/07/11 23:06:30;;;;;;;35.30;14.73;;;17.60;99.90;;;;;;12442918;28;20095;-42
2021/07/11 23:12:32;;;;;;;43.17;19.20;;;17.50;99.90;;;;;;12443624;28;20099;-41
2021/07/11 23:18:34;;;;;;;25.73;15.40;;;17.30;99.90;;;;;;12444639;28;20046;-42
2021/07/11 23:24:36;;;;;;;29.05;16.90;;;17.40;99.90;;;;;;12442883;28;20042;-43
2021/07/11 23:30:37;;;;;;;30.67;18.73;;;17.40;99.90;;;;;;12440403;28;20045;-40
2021/07/11 23:36:39;;;;;;;52.22;25.33;;;17.30;99.90;;;;;;12443761;28;20060;-44
2021/07/11 23:42:41;;;;;;;51.60;25.40;;;17.40;99.90;;;;;;12441284;28;20052;-40
2021/07/11 23:48:43;;;;;;;48.78;27.48;;;17.30;99.90;;;;;;12445087;28;20110;-41
2021/07/11 23:54:46;;;;;;;50.85;28.38;;;17.40;99.90;;;;;;12445183;28;20045;-41
